Time;durP1;ratioP1;P1;durP2;ratioP2;P2;SDS_P1;SDS_P2;PMS_P1;PMS_P2;Temp;Humidity;BMP_temperature;BMP_pressure;BME280_temperature;BME280_humidity;BME280_pressure;Samples;Min_cycle;Max_cycle;Signal;HPM_P1;HPM_P2
2022/10/16 00:01:16;;;;;;;13.70;13.10;;;8.90;77.90;;;;;;5012924;28;20032;-75
2022/10/16 00:03:43;;;;;;;13.55;12.95;;;8.90;78.40;;;;;;5013013;28;20084;-75
2022/10/16 00:06:10;;;;;;;13.65;13.05;;;8.80;77.80;;;;;;5013031;28;20030;-75
2022/10/16 00:08:36;;;;;;;14.65;14.05;;;8.80;77.80;;;;;;5030628;28;20038;-75
2022/10/16 00:11:10;;;;;;;13.75;13.15;;;8.80;77.80;;;;;;5030551;28;20060;-75
2022/10/16 00:13:38;;;;;;;14.80;14.20;;;8.80;77.90;;;;;;5030405;28;20378;-75
2022/10/16 00:16:04;;;;;;;14.68;14.07;;;8.80;77.90;;;;;;5030578;28;20032;-75
2022/10/16 00:18:31;;;;;;;15.85;15.15;;;8.70;77.80;;;;;;5030715;28;20490;-75
2022/10/16 00:21:02;;;;;;;;;;;8.70;77.90;;;;;;5030881;28;20034;-75
2022/10/16 00:23:27;;;;;;;16.88;16.17;;;8.70;77.90;;;;;;5030285;28;20012;-75
2022/10/16 00:25:59;;;;;;;15.98;15.27;;;8.60;77.80;;;;;;5012413;28;20555;-75
2022/10/16 00:28:25;;;;;;;16.50;15.80;;;8.60;77.80;;;;;;5030198;28;20022;-74
2022/10/16 00:30:51;;;;;;;17.65;16.95;;;8.60;77.80;;;;;;5030088;28;20033;-75
2022/10/16 00:33:16;;;;;;;19.55;18.75;;;8.60;77.90;;;;;;5028866;28;20399;-75
2022/10/16 00:35:42;;;;;;;20.27;19.48;;;8.60;77.90;;;;;;5012225;28;20057;-75
2022/10/16 00:38:08;;;;;;;19.02;18.23;;;8.50;77.90;;;;;;5012151;28;20056;-75
2022/10/16 00:40:33;;;;;;;17.65;16.95;;;8.50;77.90;;;;;;5011406;28;20037;-75
2022/10/16 00:42:59;;;;;;;18.15;17.45;;;8.50;77.90;;;;;;5011876;28;20033;-75
2022/10/16 00:45:25;;;;;;;17.90;17.20;;;8.50;78.00;;;;;;5012015;28;20069;-75
2022/10/16 00:47:53;;;;;;;16.48;15.77;;;8.50;78.00;;;;;;5012101;28;20112;-75
2022/10/16 00:50:34;;;;;;;17.98;17.27;;;8.50;78.00;;;;;;5029946;28;20083;-75
2022/10/16 00:53:02;;;;;;;17.52;16.83;;;8.50;78.10;;;;;;5029598;28;20102;-75
2022/10/16 00:55:30;;;;;;;17.90;17.20;;;8.50;78.00;;;;;;5012059;28;20026;-75
2022/10/16 00:57:57;;;;;;;17.00;16.30;;;8.50;78.00;;;;;;5029667;28;20084;-75
2022/10/16 01:00:26;;;;;;;17.90;17.20;;;8.50;78.00;;;;;;5012007;28;20039;-75
2022/10/16 01:02:59;;;;;;;17.25;16.55;;;8.50;78.00;;;;;;5029626;28;20072;-75
2022/10/16 01:05:50;;;;;;;16.27;15.57;;;8.50;78.10;;;;;;5011778;28;20036;-75
2022/10/16 01:08:26;;;;;;;14.85;14.25;;;8.50;78.10;;;;;;5011882;28;20558;-70
2022/10/16 01:10:59;;;;;;;16.57;15.87;;;8.50;78.00;;;;;;5029553;28;20033;-75
2022/10/16 01:13:32;;;;;;;15.57;14.90;;;8.50;78.10;;;;;;5029391;28;20040;-75
2022/10/16 01:16:06;;;;;;;15.23;14.63;;;8.50;78.10;;;;;;5029503;28;20096;-75
2022/10/16 01:18:53;;;;;;;15.63;14.93;;;8.50;78.10;;;;;;5011745;28;20017;-75
2022/10/16 01:21:24;;;;;;;13.82;13.23;;;8.50;78.10;;;;;;5029459;28;20060;-72
2022/10/16 01:24:08;;;;;;;14.07;13.48;;;8.50;78.10;;;;;;5011423;28;20109;-73
2022/10/16 01:27:01;;;;;;;14.52;13.93;;;8.40;78.00;;;;;;5029461;28;20033;-72
2022/10/16 01:29:59;;;;;;;14.20;13.60;;;8.40;78.10;;;;;;5011525;28;20487;-72
2022/10/16 01:32:28;;;;;;;14.73;14.13;;;8.40;78.10;;;;;;5005809;28;20041;-72
2022/10/16 01:35:01;;;;;;;16.27;15.57;;;8.40;78.10;;;;;;5011415;28;20491;-72
2022/10/16 01:37:38;;;;;;;13.95;13.35;;;8.40;78.00;;;;;;5029158;28;20048;-73
2022/10/16 01:40:09;;;;;;;13.43;12.82;;;8.40;78.10;;;;;;5029064;28;20553;-72
2022/10/16 01:42:40;;;;;;;13.30;12.70;;;8.40;78.10;;;;;;5029079;28;20411;-72
2022/10/16 01:45:08;;;;;;;13.70;13.10;;;8.40;78.10;;;;;;5011288;28;20033;-73
2022/10/16 01:47:36;;;;;;;14.07;13.48;;;8.40;78.10;;;;;;5028986;28;20521;-72
2022/10/16 01:50:04;;;;;;;13.60;13.00;;;8.30;78.00;;;;;;5011119;28;20049;-72
2022/10/16 01:52:34;;;;;;;13.90;13.30;;;8.30;78.00;;;;;;5028451;28;20021;-72
2022/10/16 01:55:03;;;;;;;12.57;11.98;;;8.30;78.10;;;;;;5028816;28;20029;-73
2022/10/16 01:57:31;;;;;;;13.13;12.52;;;8.30;78.10;;;;;;5010971;28;20048;-73
2022/10/16 02:00:03;;;;;;;13.50;12.90;;;8.30;78.10;;;;;;5028833;28;20082;-72
2022/10/16 02:02:31;;;;;;;12.35;11.80;;;8.30;78.10;;;;;;5028614;28;20420;-72
2022/10/16 02:05:21;;;;;;;12.95;12.35;;;8.30;78.10;;;;;;5010162;28;20025;-73
2022/10/16 02:07:48;;;;;;;13.57;12.98;;;8.30;78.10;;;;;;5010695;28;20502;-72
2022/10/16 02:10:14;;;;;;;12.90;12.30;;;8.30;78.10;;;;;;5028516;28;20037;-73
2022/10/16 02:12:45;;;;;;;13.05;12.45;;;8.30;78.10;;;;;;5010401;28;20125;-72
2022/10/16 02:15:11;;;;;;;12.48;11.88;;;8.30;78.10;;;;;;5010640;28;20053;-73
2022/10/16 02:17:37;;;;;;;13.63;13.02;;;8.30;78.20;;;;;;5010708;28;20499;-73
2022/10/16 02:20:04;;;;;;;13.63;13.02;;;8.20;78.10;;;;;;5010770;28;20029;-72
2022/10/16 02:22:43;;;;;;;13.25;12.65;;;8.20;78.10;;;;;;5028243;28;20025;-72
2022/10/16 02:25:24;;;;;;;12.27;11.75;;;8.20;78.10;;;;;;5028316;28;20051;-73
2022/10/16 02:27:53;;;;;;;13.52;12.93;;;8.20;78.10;;;;;;5010423;28;20038;-73
2022/10/16 02:30:32;;;;;;;12.65;12.07;;;8.20;78.10;;;;;;5010424;28;20072;-72
2022/10/16 02:33:01;;;;;;;13.05;12.45;;;8.20;78.10;;;;;;5027998;28;20163;-73
2022/10/16 02:35:28;;;;;;;11.82;11.32;;;8.20;78.10;;;;;;5010317;28;20032;-73
2022/10/16 02:37:56;;;;;;;12.32;11.77;;;8.20;78.10;;;;;;5027847;28;20112;-72
2022/10/16 02:40:22;;;;;;;12.90;12.30;;;8.20;78.10;;;;;;5028066;28;20029;-73
2022/10/16 02:42:52;;;;;;;12.77;12.18;;;8.20;78.20;;;;;;5027948;28;20025;-72
2022/10/16 02:45:18;;;;;;;12.60;12.00;;;8.20;78.10;;;;;;5027660;28;20026;-72
2022/10/16 02:47:44;;;;;;;;;;;8.20;78.10;;;;;;5010483;28;20021;-72
2022/10/16 02:50:09;;;;;;;12.13;11.63;;;8.20;78.10;;;;;;5027932;28;19995;-73
2022/10/16 02:52:35;;;;;;;12.75;12.15;;;8.20;78.10;;;;;;5027725;28;20052;-73
2022/10/16 02:55:01;;;;;;;12.55;11.95;;;8.10;78.00;;;;;;5010203;28;20047;-73
2022/10/16 02:57:27;;;;;;;11.30;10.80;;;8.20;78.10;;;;;;4993787;28;20039;-72
2022/10/16 02:59:53;;;;;;;11.07;10.57;;;8.10;78.10;;;;;;5010089;28;20426;-72
2022/10/16 03:02:19;;;;;;;11.82;11.32;;;8.10;78.10;;;;;;4993147;28;20029;-72
2022/10/16 03:04:44;;;;;;;11.15;10.65;;;8.10;78.10;;;;;;5026960;28;20041;-72
2022/10/16 03:07:10;;;;;;;11.43;10.93;;;8.10;78.10;;;;;;5009915;28;20042;-73
2022/10/16 03:09:36;;;;;;;10.80;10.30;;;8.10;78.10;;;;;;5009849;28;20085;-72
2022/10/16 03:12:02;;;;;;;10.98;10.48;;;8.10;78.10;;;;;;5009992;28;20495;-72
2022/10/16 03:14:27;;;;;;;10.40;9.90;;;8.10;78.10;;;;;;5027427;28;20391;-72
2022/10/16 03:16:53;;;;;;;11.30;10.80;;;8.00;78.10;;;;;;5027513;28;20673;-72
2022/10/16 03:19:19;;;;;;;10.50;10.00;;;8.00;78.10;;;;;;5027258;28;20094;-72
2022/10/16 03:21:45;;;;;;;10.23;9.73;;;8.00;78.10;;;;;;5009368;28;20464;-72
2022/10/16 03:24:11;;;;;;;9.80;9.30;;;8.00;78.10;;;;;;5009605;28;20542;-72
2022/10/16 03:26:37;;;;;;;9.48;8.98;;;8.00;78.10;;;;;;5009745;28;20030;-72
2022/10/16 03:29:03;;;;;;;9.77;9.27;;;8.00;78.20;;;;;;4993571;28;20033;-72
2022/10/16 03:31:30;;;;;;;;;;;7.90;78.10;;;;;;5027925;28;20119;-72
2022/10/16 03:33:56;;;;;;;8.75;8.35;;;8.00;78.20;;;;;;5009453;28;19962;-73
2022/10/16 03:36:21;;;;;;;9.45;8.95;;;8.00;78.10;;;;;;5009617;28;20135;-72
2022/10/16 03:38:47;;;;;;;8.20;7.80;;;7.90;78.10;;;;;;5009611;28;20064;-72
2022/10/16 03:41:13;;;;;;;8.75;8.35;;;7.90;78.10;;;;;;5009473;28;20083;-72
2022/10/16 03:43:39;;;;;;;8.50;8.10;;;7.90;78.20;;;;;;4993305;28;20201;-73
2022/10/16 03:46:04;;;;;;;7.75;7.35;;;7.90;78.20;;;;;;5026023;28;20316;-72
2022/10/16 03:48:31;;;;;;;8.10;7.70;;;7.90;78.20;;;;;;5027154;28;20037;-73
2022/10/16 03:50:57;;;;;;;7.97;7.57;;;7.90;78.20;;;;;;5027101;28;20518;-72
2022/10/16 03:53:23;;;;;;;7.80;7.40;;;7.90;78.20;;;;;;5027020;28;20026;-72
2022/10/16 03:55:49;;;;;;;7.60;7.20;;;7.90;78.20;;;;;;5009439;28;20032;-72
2022/10/16 03:58:15;;;;;;;7.20;6.80;;;7.90;78.20;;;;;;5027221;28;20032;-72
2022/10/16 04:00:42;;;;;;;7.90;7.50;;;7.90;78.20;;;;;;5027274;28;20030;-72
2022/10/16 04:03:08;;;;;;;7.88;7.47;;;7.90;78.10;;;;;;5027013;28;20026;-72
2022/10/16 04:05:34;;;;;;;7.32;6.93;;;7.90;78.10;;;;;;4993111;28;20033;-72
2022/10/16 04:08:00;;;;;;;7.18;6.78;;;7.90;78.10;;;;;;5009273;28;20394;-72
2022/10/16 04:10:26;;;;;;;7.65;7.25;;;7.90;78.10;;;;;;5009362;28;20113;-72
2022/10/16 04:12:54;;;;;;;7.88;7.47;;;7.80;78.10;;;;;;5026809;28;20125;-72
2022/10/16 04:15:20;;;;;;;7.25;6.85;;;7.80;78.10;;;;;;5010326;28;20017;-72
2022/10/16 04:17:46;;;;;;;8.80;8.40;;;7.80;78.10;;;;;;5012854;28;20215;-72
2022/10/16 04:20:11;;;;;;;8.15;7.75;;;7.80;78.10;;;;;;5030731;28;20033;-72
2022/10/16 04:22:37;;;;;;;7.20;6.80;;;7.80;78.10;;;;;;5012943;28;20029;-72
2022/10/16 04:25:03;;;;;;;6.90;6.50;;;7.70;78.10;;;;;;5012887;28;20389;-72
2022/10/16 04:27:31;;;;;;;7.75;7.35;;;7.70;78.10;;;;;;5030521;28;20036;-72
2022/10/16 04:29:57;;;;;;;7.70;7.30;;;7.70;78.10;;;;;;5030418;28;20037;-72
2022/10/16 04:32:22;;;;;;;7.93;7.53;;;7.70;78.10;;;;;;5012745;28;20033;-72
2022/10/16 04:34:48;;;;;;;7.78;7.38;;;7.70;78.20;;;;;;5012790;28;20037;-73
2022/10/16 04:37:14;;;;;;;7.82;7.43;;;7.70;78.10;;;;;;5012850;28;20501;-72
2022/10/16 04:39:40;;;;;;;7.50;7.10;;;7.70;78.20;;;;;;4996124;28;20045;-72
2022/10/16 04:42:05;;;;;;;8.13;7.72;;;7.70;78.10;;;;;;5029109;28;20388;-73
2022/10/16 04:44:31;;;;;;;8.10;7.70;;;7.60;78.10;;;;;;5012437;28;20040;-72
2022/10/16 04:46:57;;;;;;;7.22;6.82;;;7.60;78.10;;;;;;5012341;28;20445;-73
2022/10/16 04:49:22;;;;;;;8.55;8.15;;;7.70;78.10;;;;;;5030240;28;20507;-73
2022/10/16 04:51:48;;;;;;;7.38;6.97;;;7.60;78.10;;;;;;5029944;28;20050;-73
2022/10/16 04:54:14;;;;;;;7.50;7.10;;;7.70;78.10;;;;;;4995826;28;20044;-76
2022/10/16 04:56:46;;;;;;;7.40;7.00;;;7.60;78.10;;;;;;5012085;28;20055;-76
2022/10/16 04:59:13;;;;;;;7.22;6.82;;;7.60;78.10;;;;;;5012113;28;20183;-76
2022/10/16 05:01:38;;;;;;;7.28;6.88;;;7.60;78.10;;;;;;5029835;28;20374;-75
2022/10/16 05:04:04;;;;;;;7.53;7.13;;;7.60;78.10;;;;;;5029746;28;20035;-76
2022/10/16 05:06:30;;;;;;;7.75;7.35;;;7.70;78.10;;;;;;5012132;28;20033;-76
2022/10/16 05:08:55;;;;;;;7.57;7.18;;;7.60;78.10;;;;;;5011891;28;20365;-76
2022/10/16 05:11:21;;;;;;;8.02;7.63;;;7.60;78.10;;;;;;4995840;28;20305;-76
2022/10/16 05:13:47;;;;;;;7.63;7.22;;;7.60;78.00;;;;;;5011572;28;20052;-76
2022/10/16 05:16:13;;;;;;;7.55;7.15;;;7.60;78.00;;;;;;5011711;28;20033;-75
2022/10/16 05:18:38;;;;;;;8.43;8.02;;;7.60;78.00;;;;;;5011800;28;20037;-76
2022/10/16 05:21:05;;;;;;;8.40;8.00;;;7.60;78.00;;;;;;5029375;28;20030;-76
2022/10/16 05:23:31;;;;;;;7.93;7.53;;;7.60;78.00;;;;;;5011504;28;20518;-76
2022/10/16 05:25:59;;;;;;;8.50;8.10;;;7.60;78.50;;;;;;5011653;28;20030;-76
2022/10/16 05:28:26;;;;;;;8.32;7.93;;;7.60;78.00;;;;;;5010979;28;20040;-76
2022/10/16 05:30:52;;;;;;;8.40;8.00;;;7.60;78.00;;;;;;5029226;28;20476;-76
2022/10/16 05:33:21;;;;;;;8.40;8.00;;;7.50;77.90;;;;;;5029078;28;20060;-76
2022/10/16 05:35:46;;;;;;;8.55;8.15;;;7.50;78.00;;;;;;5029085;28;20022;-76
2022/10/16 05:38:12;;;;;;;8.13;7.72;;;7.50;78.00;;;;;;5028980;28;20124;-76
2022/10/16 05:40:38;;;;;;;8.10;7.70;;;7.50;78.00;;;;;;5029140;28;20112;-76
2022/10/16 05:43:04;;;;;;;8.95;8.55;;;7.50;78.10;;;;;;5028819;28;20053;-76
2022/10/16 05:45:29;;;;;;;7.80;7.40;;;7.40;78.00;;;;;;5011310;28;20606;-76
2022/10/16 05:47:55;;;;;;;8.68;8.27;;;7.50;78.10;;;;;;5011022;28;20376;-76
2022/10/16 05:50:21;;;;;;;9.38;8.90;;;7.50;78.20;;;;;;5029045;28;20475;-76
2022/10/16 05:52:47;;;;;;;7.75;7.35;;;7.50;78.10;;;;;;5010797;28;20063;-75
2022/10/16 05:55:12;;;;;;;8.27;7.88;;;7.50;78.10;;;;;;5011038;28;20149;-73
2022/10/16 05:57:38;;;;;;;9.05;8.65;;;7.50;78.10;;;;;;5028819;28;20034;-73
2022/10/16 06:00:05;;;;;;;8.90;8.50;;;7.50;78.10;;;;;;5011078;28;20108;-72
2022/10/16 06:02:31;;;;;;;7.97;7.57;;;7.50;78.10;;;;;;5010886;28;20033;-73
2022/10/16 06:04:57;;;;;;;8.50;8.10;;;7.50;78.10;;;;;;5028835;28;20377;-73
2022/10/16 06:07:23;;;;;;;9.07;8.68;;;7.40;78.00;;;;;;5028786;28;20065;-73
2022/10/16 06:09:50;;;;;;;8.40;8.00;;;7.50;78.10;;;;;;5028547;28;20026;-73
2022/10/16 06:12:16;;;;;;;9.02;8.63;;;7.50;78.10;;;;;;5028560;28;20029;-73
2022/10/16 06:14:42;;;;;;;8.50;8.10;;;7.40;78.00;;;;;;5010565;28;20120;-73
2022/10/16 06:17:08;;;;;;;8.43;8.02;;;7.40;78.00;;;;;;4994504;28;20456;-72
2022/10/16 06:19:34;;;;;;;9.35;8.88;;;7.40;78.00;;;;;;5010760;28;20030;-73
2022/10/16 06:22:00;;;;;;;9.40;8.90;;;7.40;78.10;;;;;;5010560;28;20037;-73
2022/10/16 06:24:25;;;;;;;9.30;8.90;;;7.40;78.00;;;;;;5010411;28;20395;-73
2022/10/16 06:26:51;;;;;;;8.93;8.52;;;7.40;78.00;;;;;;5010623;28;20040;-73
2022/10/16 06:29:17;;;;;;;9.50;9.02;;;7.40;78.00;;;;;;5028212;28;20108;-73
2022/10/16 06:31:43;;;;;;;8.32;7.93;;;7.40;78.00;;;;;;5010639;28;20029;-73
2022/10/16 06:34:11;;;;;;;8.65;8.25;;;7.40;78.10;;;;;;5026895;28;20053;-73
2022/10/16 06:36:38;;;;;;;10.13;9.63;;;7.30;78.10;;;;;;5010274;28;20505;-73
2022/10/16 06:39:06;;;;;;;8.40;8.00;;;7.30;78.00;;;;;;5027100;28;20121;-73
2022/10/16 06:41:32;;;;;;;8.93;8.52;;;7.30;78.10;;;;;;5010456;28;20022;-73
2022/10/16 06:43:58;;;;;;;;;;;7.30;78.00;;;;;;5028410;28;20119;-73
2022/10/16 06:46:25;;;;;;;8.30;7.90;;;7.30;78.20;;;;;;5028286;28;20370;-71
2022/10/16 06:48:52;;;;;;;9.73;9.23;;;7.30;78.00;;;;;;5010250;28;20105;-73
2022/10/16 06:51:18;;;;;;;;;;;7.30;78.00;;;;;;5027089;28;20068;-73
2022/10/16 06:53:48;;;;;;;8.30;7.90;;;7.30;78.00;;;;;;5028011;28;19917;-72
2022/10/16 06:56:19;;;;;;;8.70;8.30;;;7.30;78.00;;;;;;5027778;28;20021;-73
2022/10/16 06:58:46;;;;;;;9.05;8.65;;;7.30;78.00;;;;;;5010009;28;20098;-73
2022/10/16 07:01:13;;;;;;;9.00;8.60;;;7.30;78.00;;;;;;5027497;28;20052;-73
2022/10/16 07:03:40;;;;;;;9.13;8.73;;;7.30;78.00;;;;;;5027585;28;20033;-73
2022/10/16 07:06:09;;;;;;;9.55;9.05;;;7.30;78.10;;;;;;5027468;28;20060;-73
2022/10/16 07:08:36;;;;;;;8.90;8.50;;;7.30;78.10;;;;;;5027547;28;20033;-73
2022/10/16 07:11:05;;;;;;;9.50;9.02;;;7.30;78.10;;;;;;5009882;28;20426;-73
2022/10/16 07:13:33;;;;;;;9.25;8.82;;;7.40;78.10;;;;;;5009621;28;20029;-73
2022/10/16 07:16:24;;;;;;;8.88;8.48;;;7.40;78.10;;;;;;5009806;28;20034;-73
2022/10/16 07:18:51;;;;;;;9.15;8.75;;;7.50;78.20;;;;;;5009550;28;20029;-72
2022/10/16 07:21:20;;;;;;;9.30;8.88;;;7.50;78.10;;;;;;5009923;28;20099;-73
2022/10/16 07:23:49;;;;;;;9.20;8.80;;;7.60;78.10;;;;;;5009506;28;20388;-72
2022/10/16 07:26:15;;;;;;;9.10;8.70;;;7.70;78.10;;;;;;5009355;28;20035;-73
2022/10/16 07:28:42;;;;;;;9.15;8.75;;;7.70;78.10;;;;;;5009757;28;20498;-75
2022/10/16 07:31:11;;;;;;;8.48;8.07;;;7.90;78.20;;;;;;5009297;28;20107;-76
2022/10/16 07:33:39;;;;;;;8.60;8.20;;;8.00;78.20;;;;;;5027421;28;20026;-76
2022/10/16 07:36:06;;;;;;;8.65;8.25;;;8.00;78.20;;;;;;5027090;28;20452;-76
2022/10/16 07:38:31;;;;;;;9.00;8.60;;;8.20;78.20;;;;;;5027020;28;20072;-75
2022/10/16 07:40:58;;;;;;;9.02;8.63;;;8.30;78.10;;;;;;5026989;28;20053;-76
2022/10/16 07:43:25;;;;;;;8.82;8.43;;;8.30;78.00;;;;;;5027079;28;20079;-76
2022/10/16 07:45:50;;;;;;;;;;;8.40;77.90;;;;;;5027772;28;20044;-76
2022/10/16 07:48:17;;;;;;;8.50;8.10;;;8.40;77.90;;;;;;5026827;28;19911;-75
2022/10/16 07:50:44;;;;;;;9.38;8.93;;;8.40;77.70;;;;;;5010627;28;20034;-75
2022/10/16 07:53:10;;;;;;;8.15;7.75;;;8.40;77.80;;;;;;5030607;28;20526;-75
2022/10/16 07:55:36;;;;;;;8.25;7.85;;;8.40;77.80;;;;;;5012803;28;20028;-75
2022/10/16 07:58:01;;;;;;;8.90;8.50;;;8.50;77.90;;;;;;5030608;28;20360;-75
2022/10/16 08:00:27;;;;;;;8.65;8.25;;;8.50;77.90;;;;;;5030289;28;20751;-75
2022/10/16 08:02:53;;;;;;;8.18;7.78;;;8.60;78.10;;;;;;5012809;28;20041;-75
2022/10/16 08:05:19;;;;;;;8.68;8.27;;;8.60;78.10;;;;;;5030730;28;20087;-75
2022/10/16 08:07:51;;;;;;;7.95;7.55;;;8.70;78.10;;;;;;5012733;28;20368;-74
2022/10/16 08:10:19;;;;;;;8.20;7.80;;;8.80;78.10;;;;;;5030987;28;20029;-74
2022/10/16 08:12:44;;;;;;;8.00;7.60;;;8.80;78.10;;;;;;5012953;28;20443;-75
2022/10/16 08:15:10;;;;;;;8.40;8.00;;;8.90;78.10;;;;;;5030401;28;20071;-75
2022/10/16 08:17:36;;;;;;;9.05;8.65;;;9.00;78.10;;;;;;5030379;28;20029;-75
2022/10/16 08:20:02;;;;;;;9.63;9.15;;;9.10;78.10;;;;;;5030308;28;20499;-75
2022/10/16 08:22:28;;;;;;;8.15;7.75;;;9.20;78.10;;;;;;5030168;28;20098;-75
2022/10/16 08:24:54;;;;;;;7.63;7.22;;;9.30;78.10;;;;;;5012296;28;20096;-75
2022/10/16 08:27:19;;;;;;;8.00;7.60;;;9.40;78.20;;;;;;5030271;28;20479;-75
2022/10/16 08:29:45;;;;;;;8.35;7.95;;;9.50;78.20;;;;;;5012113;28;20414;-75
2022/10/16 08:32:11;;;;;;;7.60;7.20;;;9.60;78.30;;;;;;5012074;28;20087;-75
2022/10/16 08:34:36;;;;;;;8.30;7.90;;;9.70;78.20;;;;;;5029612;28;20134;-75
2022/10/16 08:37:02;;;;;;;8.27;7.88;;;9.90;78.30;;;;;;5029944;28;20332;-75
2022/10/16 08:39:28;;;;;;;6.88;6.47;;;10.00;78.20;;;;;;5029624;28;20042;-75
2022/10/16 08:41:54;;;;;;;8.07;7.68;;;10.10;78.30;;;;;;5029680;28;20104;-76
2022/10/16 08:44:42;;;;;;;8.40;8.00;;;10.30;78.50;;;;;;5011954;28;20475;-75
2022/10/16 08:47:07;;;;;;;6.85;6.45;;;10.60;78.50;;;;;;5029732;28;20029;-75
2022/10/16 08:49:33;;;;;;;8.00;7.60;;;10.70;78.40;;;;;;5029558;28;20057;-75
2022/10/16 08:52:00;;;;;;;7.00;6.60;;;10.90;78.30;;;;;;5011615;28;20040;-75
2022/10/16 08:54:36;;;;;;;6.65;6.25;;;11.10;78.30;;;;;;5029437;28;20041;-75
2022/10/16 08:57:13;;;;;;;6.50;6.10;;;11.20;78.30;;;;;;5029597;28;20025;-75
2022/10/16 08:59:39;;;;;;;6.63;6.22;;;11.40;78.30;;;;;;5029214;28;20060;-75
2022/10/16 09:02:31;;;;;;;5.85;5.55;;;11.50;78.20;;;;;;5028055;28;20061;-75
2022/10/16 09:05:15;;;;;;;6.18;5.88;;;11.50;78.10;;;;;;5029201;28;20041;-75
2022/10/16 09:07:56;;;;;;;5.78;5.47;;;11.60;78.10;;;;;;5011271;28;20372;-75
2022/10/16 09:10:44;;;;;;;6.40;6.03;;;11.70;78.10;;;;;;5029326;28;20104;-75
2022/10/16 09:13:29;;;;;;;5.45;5.15;;;11.70;78.10;;;;;;5020906;28;20038;-75
2022/10/16 09:16:27;;;;;;;5.25;4.95;;;11.70;78.10;;;;;;5028938;28;20435;-75
2022/10/16 09:19:23;;;;;;;5.15;4.85;;;11.80;78.10;;;;;;5029035;28;20490;-75
2022/10/16 09:21:49;;;;;;;6.22;5.82;;;11.80;78.10;;;;;;5028403;28;20569;-75
2022/10/16 09:24:18;;;;;;;5.30;5.00;;;11.80;78.10;;;;;;5010911;28;20034;-75
2022/10/16 09:26:45;;;;;;;5.15;4.85;;;11.80;78.20;;;;;;5028587;28;20039;-75
2022/10/16 09:29:15;;;;;;;4.97;4.68;;;11.80;78.20;;;;;;5028426;28;20036;-75
2022/10/16 09:31:42;;;;;;;5.00;4.70;;;11.80;78.20;;;;;;5028738;28;20440;-75
2022/10/16 09:34:32;;;;;;;4.60;4.30;;;11.80;78.30;;;;;;5027844;28;20085;-74
2022/10/16 09:37:01;;;;;;;5.50;5.20;;;11.80;78.30;;;;;;5028007;28;20037;-74
2022/10/16 09:39:26;;;;;;;5.00;4.70;;;11.80;78.30;;;;;;5027783;28;20034;-74
2022/10/16 09:41:53;;;;;;;4.30;4.00;;;11.80;78.30;;;;;;5027838;28;20541;-73
2022/10/16 09:44:27;;;;;;;;;;;11.90;78.50;;;;;;5028901;28;20033;-73
2022/10/16 09:47:14;;;;;;;4.10;3.80;;;12.00;78.50;;;;;;5028391;28;19905;-74
2022/10/16 09:49:55;;;;;;;4.30;4.00;;;12.10;78.50;;;;;;5028405;28;20026;-74
2022/10/16 09:52:21;;;;;;;4.18;3.88;;;12.10;78.60;;;;;;5027786;28;20029;-74
2022/10/16 09:54:57;;;;;;;4.35;4.05;;;12.30;78.60;;;;;;5027780;28;20064;-74
2022/10/16 09:57:23;;;;;;;3.70;3.40;;;12.40;78.60;;;;;;5027924;28;20026;-74
2022/10/16 09:59:54;;;;;;;3.80;3.50;;;12.50;78.60;;;;;;5027851;28;20033;-74
2022/10/16 10:02:29;;;;;;;4.07;3.78;;;12.60;78.60;;;;;;5027505;28;20045;-74
2022/10/16 10:04:56;;;;;;;3.78;3.47;;;12.80;78.70;;;;;;5028224;28;20068;-74
2022/10/16 10:07:26;;;;;;;;;;;12.90;78.60;;;;;;5028447;28;20110;-74
2022/10/16 10:09:53;;;;;;;3.25;3.05;;;13.00;78.60;;;;;;5009937;28;19905;-74
2022/10/16 10:12:24;;;;;;;3.10;2.90;;;13.10;78.50;;;;;;5027727;28;20466;-74
2022/10/16 10:14:57;;;;;;;3.13;2.92;;;13.20;78.60;;;;;;5027236;28;20047;-75
2022/10/16 10:17:27;;;;;;;2.70;2.50;;;13.30;78.60;;;;;;5027616;28;20049;-74
2022/10/16 10:20:20;;;;;;;2.75;2.55;;;13.40;78.60;;;;;;5027233;28;20100;-74
2022/10/16 10:22:46;;;;;;;2.30;2.10;;;13.60;78.70;;;;;;5027106;28;20017;-74
2022/10/16 10:25:15;;;;;;;2.22;2.03;;;13.60;78.60;;;;;;4993197;28;20542;-74
2022/10/16 10:28:05;;;;;;;2.53;2.33;;;13.70;78.70;;;;;;5026964;28;20494;-75
2022/10/16 10:31:00;;;;;;;2.50;2.30;;;13.80;78.60;;;;;;5027099;28;20030;-74
2022/10/16 10:33:44;;;;;;;2.53;2.33;;;13.80;78.50;;;;;;5009101;28;20487;-74
2022/10/16 10:36:32;;;;;;;1.60;1.50;;;13.80;78.50;;;;;;5008728;28;20526;-74
2022/10/16 10:39:16;;;;;;;1.73;1.63;;;13.90;78.50;;;;;;5027056;28;20037;-74
2022/10/16 10:42:16;;;;;;;1.60;1.50;;;13.80;78.50;;;;;;5026736;28;20152;-74
2022/10/16 10:44:56;;;;;;;1.88;1.77;;;13.80;78.60;;;;;;5026821;28;20029;-74
2022/10/16 10:47:46;;;;;;;1.50;1.40;;;13.80;78.60;;;;;;5026772;28;20060;-75
2022/10/16 10:50:24;;;;;;;1.70;1.60;;;13.90;78.50;;;;;;5026758;28;20539;-74
2022/10/16 10:52:57;;;;;;;1.80;1.70;;;13.90;78.60;;;;;;5026578;28;20485;-75
2022/10/16 10:55:43;;;;;;;1.85;1.75;;;13.90;78.60;;;;;;5008756;28;20196;-75
2022/10/16 10:58:30;;;;;;;1.50;1.40;;;13.90;78.70;;;;;;5026486;28;20013;-72
2022/10/16 11:01:08;;;;;;;1.63;1.52;;;13.90;78.70;;;;;;5008944;28;20446;-75
2022/10/16 11:03:53;;;;;;;1.60;1.50;;;13.90;78.70;;;;;;5026755;28;20021;-76
2022/10/16 11:06:30;;;;;;;1.30;1.20;;;13.90;78.70;;;;;;5026531;28;20033;-75
2022/10/16 11:09:01;;;;;;;;;;;14.00;78.70;;;;;;5027042;28;20097;-76
2022/10/16 11:11:49;;;;;;;1.50;1.40;;;13.90;78.60;;;;;;5026499;28;19988;-76
2022/10/16 11:14:28;;;;;;;1.63;1.52;;;13.90;78.70;;;;;;5026741;28;20035;-76
2022/10/16 11:17:01;;;;;;;1.75;1.65;;;13.80;78.80;;;;;;5009013;28;20025;-76
2022/10/16 11:19:54;;;;;;;2.20;2.00;;;13.80;78.90;;;;;;5026384;28;20025;-75
2022/10/16 11:22:41;;;;;;;2.00;1.90;;;13.60;78.90;;;;;;5026538;28;20021;-75
2022/10/16 11:25:27;;;;;;;2.13;1.92;;;13.60;79.10;;;;;;5025729;28;20029;-76
2022/10/16 11:28:31;;;;;;;2.30;2.10;;;13.60;79.10;;;;;;5007860;28;20033;-75
2022/10/16 11:31:17;;;;;;;1.90;1.80;;;13.60;79.20;;;;;;4993002;28;20038;-73
2022/10/16 11:33:51;;;;;;;1.83;1.73;;;13.70;79.10;;;;;;5008451;28;20026;-74
2022/10/16 11:36:38;;;;;;;2.20;2.00;;;13.60;79.10;;;;;;5008315;28;20515;-74
2022/10/16 11:39:06;;;;;;;2.30;2.10;;;13.70;79.20;;;;;;5026041;28;20045;-73
2022/10/16 11:41:37;;;;;;;2.20;2.00;;;13.70;79.20;;;;;;5025852;28;20022;-73
2022/10/16 11:44:12;;;;;;;2.88;2.67;;;13.70;79.10;;;;;;5025511;28;20439;-73
2022/10/16 11:46:40;;;;;;;2.40;2.20;;;13.80;79.10;;;;;;5025791;28;20025;-73
2022/10/16 11:49:24;;;;;;;2.60;2.40;;;13.80;79.00;;;;;;5008293;28;20120;-73
2022/10/16 11:52:10;;;;;;;2.70;2.50;;;13.80;79.00;;;;;;5026536;28;20343;-74
2022/10/16 11:54:51;;;;;;;2.80;2.60;;;13.90;78.90;;;;;;5025913;28;20391;-74
2022/10/16 11:57:27;;;;;;;2.47;2.28;;;13.80;78.90;;;;;;5007762;28;20075;-74
2022/10/16 12:00:25;;;;;;;2.45;2.25;;;13.80;79.10;;;;;;5008132;28;20025;-74
2022/10/16 12:03:08;;;;;;;2.30;2.10;;;13.80;79.10;;;;;;5022619;28;20038;-75
2022/10/16 12:06:06;;;;;;;2.10;2.00;;;13.80;79.00;;;;;;5007857;28;20026;-75
2022/10/16 12:08:34;;;;;;;2.20;2.00;;;13.70;79.10;;;;;;5025684;28;20022;-76
2022/10/16 12:11:28;;;;;;;2.30;2.10;;;13.80;79.10;;;;;;5025921;28;20030;-72
2022/10/16 12:14:11;;;;;;;1.85;1.75;;;13.80;79.00;;;;;;5007876;28;20048;-72
2022/10/16 12:16:52;;;;;;;0.70;0.70;;;13.70;78.80;;;;;;5025901;28;20029;-72
2022/10/16 12:19:18;;;;;;;0.80;0.80;;;13.70;78.80;;;;;;5025292;28;20105;-72
2022/10/16 12:21:45;;;;;;;0.40;0.40;;;13.70;78.90;;;;;;5025770;28;20440;-72
2022/10/16 12:24:26;;;;;;;0.50;0.50;;;13.60;78.80;;;;;;5007844;28;20430;-72
2022/10/16 12:26:52;;;;;;;0.20;0.20;;;13.60;78.90;;;;;;5007584;28;20029;-72
2022/10/16 12:29:29;;;;;;;0.10;0.10;;;13.60;79.30;;;;;;4991791;28;20041;-72
2022/10/16 12:31:55;;;;;;;0.10;0.10;;;13.60;78.80;;;;;;5025684;28;20029;-72
2022/10/16 12:34:31;;;;;;;0.10;0.10;;;13.60;78.80;;;;;;5025440;28;20037;-72
2022/10/16 12:37:27;;;;;;;0.05;0.05;;;13.60;78.80;;;;;;5007993;28;20551;-72
2022/10/16 12:39:55;;;;;;;0.00;0.00;;;13.70;78.80;;;;;;5028497;28;20124;-72
2022/10/16 12:42:27;;;;;;;0.10;0.10;;;13.60;78.80;;;;;;5011134;28;20043;-72
2022/10/16 12:44:53;;;;;;;0.00;0.00;;;13.60;78.80;;;;;;5029203;28;20484;-76
2022/10/16 12:47:38;;;;;;;0.00;0.00;;;13.60;78.80;;;;;;5028999;28;20029;-76
2022/10/16 12:50:22;;;;;;;0.00;0.00;;;13.50;78.90;;;;;;5028875;28;20045;-76
2022/10/16 12:52:48;;;;;;;0.00;0.00;;;13.60;79.00;;;;;;5011301;28;20087;-75
2022/10/16 12:55:19;;;;;;;0.00;0.00;;;13.60;78.90;;;;;;5010731;28;20133;-75
2022/10/16 12:58:00;;;;;;;0.00;0.00;;;13.60;78.80;;;;;;5028486;28;20036;-75
2022/10/16 13:00:44;;;;;;;0.00;0.00;;;13.50;78.60;;;;;;5028557;28;20025;-75
2022/10/16 13:03:36;;;;;;;0.00;0.00;;;13.40;78.70;;;;;;5011112;28;20036;-75
2022/10/16 13:06:26;;;;;;;0.00;0.00;;;13.30;78.60;;;;;;5028761;28;20018;-75
2022/10/16 13:09:13;;;;;;;0.00;0.00;;;13.20;78.70;;;;;;5028489;28;20428;-75
2022/10/16 13:11:45;;;;;;;;;;;13.20;78.80;;;;;;5011321;28;20109;-76